createdAt,value
2017-05-08T03:01:15.240Z,1015.98
2017-05-08T03:01:40.814Z,1015.95
2017-05-08T03:02:06.377Z,1016
2017-05-08T03:02:31.921Z,1015.97
2017-05-08T03:02:57.522Z,1015.94
2017-05-08T03:03:23.173Z,1015.94
2017-05-08T03:03:48.733Z,1015.95
2017-05-08T03:04:14.365Z,1015.91
2017-05-08T03:04:39.918Z,1015.94
2017-05-08T03:05:05.498Z,1015.93
2017-05-08T03:05:31.040Z,1015.93
2017-05-08T03:05:56.611Z,1015.93
2017-05-08T03:06:22.183Z,1015.98
2017-05-08T03:06:47.744Z,1015.97
2017-05-08T03:07:13.312Z,1016
2017-05-08T03:07:38.882Z,1015.95
2017-05-08T03:08:04.439Z,1016
2017-05-08T03:08:30.094Z,1015.99
2017-05-08T03:08:55.662Z,1015.94
2017-05-08T03:09:21.344Z,1015.93
2017-05-08T03:09:47.122Z,1015.93
2017-05-08T03:10:12.673Z,1015.96
2017-05-08T03:10:38.221Z,1015.93
2017-05-08T03:11:03.802Z,1015.93
2017-05-08T03:11:29.401Z,1015.92
2017-05-08T03:11:54.973Z,1015.92
2017-05-08T03:12:20.540Z,1015.93
2017-05-08T03:12:46.093Z,1015.93
2017-05-08T03:13:11.664Z,1015.92
2017-05-08T03:13:37.220Z,1015.95
2017-05-08T03:14:02.791Z,1015.92
2017-05-08T03:14:28.465Z,1015.97
2017-05-08T03:14:54.019Z,1015.92
2017-05-08T03:15:19.598Z,1015.98
2017-05-08T03:15:45.155Z,1015.93
2017-05-08T03:16:10.712Z,1015.93
2017-05-08T03:16:36.282Z,1015.91
2017-05-08T03:17:01.856Z,1015.94
2017-05-08T03:17:27.453Z,1015.92
2017-05-08T03:17:53.082Z,1015.95
2017-05-08T03:18:18.644Z,1015.92
2017-05-08T03:18:44.206Z,1015.97
2017-05-08T03:19:09.905Z,1015.96
2017-05-08T03:19:35.467Z,1015.95
2017-05-08T03:20:01.012Z,1015.98
2017-05-08T03:20:26.572Z,1015.96
2017-05-08T03:20:52.284Z,1015.96
2017-05-08T03:21:17.834Z,1015.95
2017-05-08T03:21:43.418Z,1015.9
2017-05-08T03:22:08.989Z,1015.95
2017-05-08T03:22:34.541Z,1015.96
2017-05-08T03:23:00.102Z,1015.99
2017-05-08T03:23:25.670Z,1016
2017-05-08T03:23:51.237Z,1016
2017-05-08T03:24:16.803Z,1016
2017-05-08T03:24:42.362Z,1015.96
2017-05-08T03:25:07.941Z,1016.03
2017-05-08T03:25:33.514Z,1016.01
2017-05-08T03:25:59.085Z,1016.04
2017-05-08T03:26:24.729Z,1016.03
2017-05-08T03:26:50.293Z,1016.06
2017-05-08T03:27:15.859Z,1016.08
2017-05-08T03:27:41.471Z,1016.1
2017-05-08T03:28:07.031Z,1016.12
2017-05-08T03:28:32.595Z,1016.09
2017-05-08T03:28:58.244Z,1016.09
2017-05-08T03:29:23.802Z,1016.11
2017-05-08T03:29:49.375Z,1016.09
2017-05-08T03:30:14.935Z,1016.1
2017-05-08T03:30:40.638Z,1016.16
2017-05-08T03:31:06.220Z,1016.13
2017-05-08T03:31:31.782Z,1016.13
2017-05-08T03:32:45.535Z,1016.14
2017-05-08T03:35:00.945Z,1016.15
2017-05-08T03:35:26.502Z,1016.17
2017-05-08T03:35:52.082Z,1016.18
2017-05-08T03:36:17.633Z,1016.16
2017-05-08T03:36:43.192Z,1016.2
2017-05-08T03:37:08.767Z,1016.19
2017-05-08T03:37:34.329Z,1016.18
2017-05-08T03:37:59.884Z,1016.2
2017-05-08T03:38:25.440Z,1016.18
2017-05-08T03:38:51.002Z,1016.23
2017-05-08T03:39:16.660Z,1016.22
2017-05-08T03:39:42.311Z,1016.2
2017-05-08T03:40:07.986Z,1016.25
2017-05-08T03:40:33.522Z,1016.24
2017-05-08T03:40:59.063Z,1016.24
2017-05-08T03:41:24.601Z,1016.24
2017-05-08T03:41:50.170Z,1016.28
2017-05-08T03:42:15.791Z,1016.29
2017-05-08T03:42:41.334Z,1016.25
2017-05-08T03:43:06.871Z,1016.24
2017-05-08T03:43:32.426Z,1016.27
2017-05-08T03:43:57.992Z,1016.23
2017-05-08T03:44:23.541Z,1016.31
2017-05-08T03:44:49.144Z,1016.28
2017-05-08T03:45:14.711Z,1016.29
2017-05-08T03:45:40.381Z,1016.26
2017-05-08T03:46:05.975Z,1016.26
2017-05-08T03:46:31.534Z,1016.26
2017-05-08T03:46:57.080Z,1016.24
2017-05-08T03:47:22.648Z,1016.3
2017-05-08T03:47:48.185Z,1016.28
2017-05-08T03:48:13.730Z,1016.28
2017-05-08T03:48:39.260Z,1016.28
2017-05-08T03:49:04.822Z,1016.3
2017-05-08T03:49:30.394Z,1016.29
2017-05-08T03:49:55.950Z,1016.26
2017-05-08T03:50:21.508Z,1016.27
2017-05-08T03:50:47.093Z,1016.28
2017-05-08T03:51:12.661Z,1016.27
2017-05-08T03:51:38.265Z,1016.32
2017-05-08T03:52:03.920Z,1016.3
2017-05-08T03:52:29.476Z,1016.32
2017-05-08T03:52:55.041Z,1016.33
2017-05-08T03:53:20.611Z,1016.36
2017-05-08T03:53:46.292Z,1016.38
2017-05-08T03:54:11.951Z,1016.35
2017-05-08T03:54:37.578Z,1016.35
2017-05-08T03:55:03.129Z,1016.39
2017-05-08T03:55:28.718Z,1016.34
2017-05-08T03:55:54.285Z,1016.37
2017-05-08T03:56:19.864Z,1016.36
2017-05-08T03:56:45.423Z,1016.35
2017-05-08T03:57:10.991Z,1016.32
2017-05-08T03:57:36.550Z,1016.34
2017-05-08T03:58:02.204Z,1016.36
2017-05-08T03:58:27.776Z,1016.35
2017-05-08T03:58:53.314Z,1016.35
2017-05-08T03:59:18.861Z,1016.33
2017-05-08T03:59:44.410Z,1016.33
2017-05-08T04:00:10.081Z,1016.35
2017-05-08T04:00:35.629Z,1016.35
2017-05-08T04:01:01.200Z,1016.35
2017-05-08T04:01:26.936Z,1016.33
2017-05-08T04:01:52.474Z,1016.34
2017-05-08T04:02:18.020Z,1016.42
2017-05-08T04:02:43.714Z,1016.41
2017-05-08T04:03:09.292Z,1016.38
2017-05-08T04:03:34.884Z,1016.31
2017-05-08T04:04:00.514Z,1016.38
2017-05-08T04:04:26.069Z,1016.33
2017-05-08T04:04:51.639Z,1016.36
2017-05-08T04:05:17.348Z,1016.32
2017-05-08T04:05:42.914Z,1016.38
2017-05-08T04:06:08.483Z,1016.37
2017-05-08T04:06:34.118Z,1016.38
2017-05-08T04:06:59.746Z,1016.33
2017-05-08T04:07:25.321Z,1016.34
2017-05-08T04:07:50.870Z,1016.39
2017-05-08T04:08:16.469Z,1016.36
2017-05-08T04:08:42.050Z,1016.38
2017-05-08T04:09:07.602Z,1016.35
2017-05-08T04:09:33.173Z,1016.33
2017-05-08T04:09:58.721Z,1016.36
2017-05-08T04:10:24.290Z,1016.38
2017-05-08T04:10:49.896Z,1016.37
2017-05-08T04:11:15.443Z,1016.37
2017-05-08T04:11:40.991Z,1016.32
2017-05-08T04:12:06.672Z,1016.35
2017-05-08T04:12:32.234Z,1016.35
2017-05-08T04:12:57.796Z,1016.36
2017-05-08T04:13:23.369Z,1016.37
2017-05-08T04:13:48.919Z,1016.37
2017-05-08T04:14:14.479Z,1016.38
2017-05-08T04:14:40.042Z,1016.36
2017-05-08T04:15:05.590Z,1016.32
2017-05-08T04:15:31.139Z,1016.35
2017-05-08T04:15:56.690Z,1016.35
2017-05-08T04:16:22.279Z,1016.34
2017-05-08T04:16:47.829Z,1016.37
2017-05-08T04:17:13.389Z,1016.33
2017-05-08T04:17:38.930Z,1016.29
2017-05-08T04:18:04.498Z,1016.31
2017-05-08T04:18:30.059Z,1016.33
2017-05-08T04:18:55.636Z,1016.27
2017-05-08T04:19:21.241Z,1016.31
2017-05-08T04:19:46.784Z,1016.32
2017-05-08T04:20:12.422Z,1016.28
2017-05-08T04:20:38.063Z,1016.31
2017-05-08T04:21:03.652Z,1016.33
2017-05-08T04:21:29.226Z,1016.34
2017-05-08T04:21:54.831Z,1016.3
2017-05-08T04:22:20.387Z,1016.33
2017-05-08T04:22:45.952Z,1016.3
2017-05-08T04:23:11.599Z,1016.33
2017-05-08T04:23:37.199Z,1016.35
2017-05-08T04:24:02.749Z,1016.34
2017-05-08T04:24:28.295Z,1016.37
2017-05-08T04:24:53.882Z,1016.35
2017-05-08T04:25:19.465Z,1016.38
2017-05-08T04:25:45.034Z,1016.33
2017-05-08T04:26:10.604Z,1016.35
2017-05-08T04:26:36.154Z,1016.41
2017-05-08T04:27:01.794Z,1016.33
2017-05-08T04:27:27.358Z,1016.4
2017-05-08T04:27:52.923Z,1016.41
2017-05-08T04:28:18.490Z,1016.38
2017-05-08T04:28:44.155Z,1016.4
2017-05-08T04:29:09.711Z,1016.41
2017-05-08T04:29:35.260Z,1016.43
2017-05-08T04:30:00.816Z,1016.42
2017-05-08T04:30:26.388Z,1016.43
2017-05-08T04:30:51.981Z,1016.4
2017-05-08T04:31:17.530Z,1016.44
2017-05-08T04:31:43.081Z,1016.41
2017-05-08T04:32:08.640Z,1016.44
2017-05-08T04:32:34.212Z,1016.44
2017-05-08T04:32:59.790Z,1016.45
2017-05-08T04:33:25.754Z,1016.44
2017-05-08T04:33:51.330Z,1016.43
2017-05-08T04:34:16.991Z,1016.43
2017-05-08T04:34:42.530Z,1016.42
2017-05-08T04:35:08.074Z,1016.46
2017-05-08T04:35:33.620Z,1016.46
2017-05-08T04:35:59.194Z,1016.5
2017-05-08T04:36:24.765Z,1016.47
2017-05-08T04:36:50.331Z,1016.5
2017-05-08T04:37:15.899Z,1016.49
2017-05-08T04:37:41.578Z,1016.46
2017-05-08T04:38:07.179Z,1016.53
2017-05-08T04:38:32.756Z,1016.54
2017-05-08T04:38:58.308Z,1016.48
2017-05-08T04:39:23.873Z,1016.45
2017-05-08T04:39:49.460Z,1016.5
2017-05-08T04:40:15.029Z,1016.5
2017-05-08T04:40:40.593Z,1016.52
2017-05-08T04:41:06.154Z,1016.49
2017-05-08T04:41:31.720Z,1016.5
2017-05-08T04:41:57.289Z,1016.52
2017-05-08T04:42:22.836Z,1016.52
2017-05-08T04:42:48.434Z,1016.53
2017-05-08T04:43:14.015Z,1016.53
2017-05-08T04:43:39.596Z,1016.55
2017-05-08T04:44:05.157Z,1016.6
2017-05-08T04:44:30.713Z,1016.57
2017-05-08T04:44:56.292Z,1016.59
2017-05-08T04:45:21.848Z,1016.61
2017-05-08T04:45:47.406Z,1016.61
2017-05-08T04:46:12.977Z,1016.57
2017-05-08T04:46:38.531Z,1016.63
2017-05-08T04:47:04.066Z,1016.64
2017-05-08T04:47:29.616Z,1016.62
2017-05-08T04:47:55.243Z,1016.63
2017-05-08T04:48:20.836Z,1016.63
2017-05-08T04:48:46.390Z,1016.59
2017-05-08T04:49:12.067Z,1016.61
2017-05-08T04:49:37.610Z,1016.57
2017-05-08T04:50:03.190Z,1016.55
2017-05-08T04:50:28.750Z,1016.57
2017-05-08T04:50:54.308Z,1016.55
2017-05-08T04:51:19.883Z,1016.52
2017-05-08T04:51:45.494Z,1016.52
2017-05-08T04:52:11.056Z,1016.52
2017-05-08T04:52:36.611Z,1016.51
2017-05-08T04:53:02.182Z,1016.5
2017-05-08T04:53:27.809Z,1016.51
2017-05-08T04:53:53.483Z,1016.52
2017-05-08T04:54:19.040Z,1016.51
2017-05-08T04:54:44.595Z,1016.5
2017-05-08T04:55:10.165Z,1016.45
2017-05-08T04:55:35.752Z,1016.52
2017-05-08T04:56:01.363Z,1016.48
2017-05-08T04:56:26.924Z,1016.5
2017-05-08T04:56:52.507Z,1016.5
2017-05-08T04:57:18.081Z,1016.54
2017-05-08T04:57:43.663Z,1016.51
2017-05-08T04:58:09.222Z,1016.52
2017-05-08T04:58:34.771Z,1016.54
2017-05-08T04:59:00.342Z,1016.54
2017-05-08T04:59:25.920Z,1016.54
2017-05-08T04:59:51.471Z,1016.57
2017-05-08T05:00:17.042Z,1016.53
2017-05-08T05:00:42.581Z,1016.55
2017-05-08T05:01:08.196Z,1016.5
2017-05-08T05:01:33.882Z,1016.57
2017-05-08T05:01:59.454Z,1016.52
2017-05-08T05:02:25.021Z,1016.54
2017-05-08T05:02:50.592Z,1016.56
2017-05-08T05:03:16.161Z,1016.55
2017-05-08T05:03:41.716Z,1016.56
2017-05-08T05:04:07.298Z,1016.55
2017-05-08T05:04:32.857Z,1016.59
2017-05-08T05:04:58.432Z,1016.57
2017-05-08T05:05:23.986Z,1016.57
2017-05-08T05:05:49.563Z,1016.56
2017-05-08T05:06:15.123Z,1016.53
2017-05-08T05:06:40.682Z,1016.55
2017-05-08T05:07:06.308Z,1016.55
2017-05-08T05:07:31.887Z,1016.56
2017-05-08T05:07:57.603Z,1016.58
2017-05-08T05:08:23.152Z,1016.57
2017-05-08T05:08:48.703Z,1016.56
2017-05-08T05:09:57.387Z,1016.54
2017-05-08T05:10:22.938Z,1016.55
2017-05-08T05:10:48.531Z,1016.57
2017-05-08T05:11:14.101Z,1016.6
2017-05-08T05:11:39.663Z,1016.6
2017-05-08T05:12:05.231Z,1016.57
2017-05-08T05:12:30.961Z,1016.56
2017-05-08T05:12:56.532Z,1016.61
2017-05-08T05:13:22.104Z,1016.56
2017-05-08T05:13:47.668Z,1016.55
2017-05-08T05:14:13.224Z,1016.56
2017-05-08T05:14:38.775Z,1016.63
2017-05-08T05:15:04.322Z,1016.52
2017-05-08T05:15:29.907Z,1016.57
2017-05-08T05:15:55.464Z,1016.59
2017-05-08T05:16:21.055Z,1016.61
2017-05-08T05:16:46.620Z,1016.56
2017-05-08T05:17:12.172Z,1016.55
2017-05-08T05:17:37.737Z,1016.59
2017-05-08T05:18:03.280Z,1016.58
2017-05-08T05:18:28.938Z,1016.54
2017-05-08T05:18:54.507Z,1016.55
2017-05-08T05:19:20.050Z,1016.57
2017-05-08T05:19:45.707Z,1016.54
2017-05-08T05:20:44.114Z,1016.58
2017-05-08T05:21:09.682Z,1016.6
2017-05-08T05:21:35.260Z,1016.52
2017-05-08T05:22:00.822Z,1016.6
2017-05-08T05:22:26.388Z,1016.6
2017-05-08T05:22:51.943Z,1016.61
2017-05-08T05:23:17.572Z,1016.52
2017-05-08T05:23:43.111Z,1016.51
2017-05-08T05:24:08.674Z,1016.54
2017-05-08T05:24:34.232Z,1016.54
2017-05-08T05:24:59.799Z,1016.59
2017-05-08T05:25:25.373Z,1016.62
2017-05-08T05:25:50.933Z,1016.58
2017-05-08T05:26:16.503Z,1016.61
2017-05-08T05:26:42.119Z,1016.58
2017-05-08T05:27:07.686Z,1016.55
2017-05-08T05:27:33.251Z,1016.58
2017-05-08T05:27:58.800Z,1016.6
2017-05-08T05:28:24.441Z,1016.52
2017-05-08T05:28:50.006Z,1016.57
2017-05-08T05:29:15.561Z,1016.57
2017-05-08T05:29:41.123Z,1016.56
2017-05-08T05:30:06.702Z,1016.57
2017-05-08T05:30:32.314Z,1016.57
2017-05-08T05:30:57.874Z,1016.58
2017-05-08T05:31:23.472Z,1016.59
2017-05-08T05:31:49.104Z,1016.57
2017-05-08T05:32:14.674Z,1016.61
2017-05-08T05:32:40.288Z,1016.56
2017-05-08T05:33:05.894Z,1016.55
2017-05-08T05:33:31.462Z,1016.58
2017-05-08T05:33:57.022Z,1016.57
2017-05-08T05:34:22.649Z,1016.54
2017-05-08T05:34:48.211Z,1016.54
2017-05-08T05:35:13.763Z,1016.54
2017-05-08T05:35:39.333Z,1016.6
2017-05-08T05:36:04.894Z,1016.52
2017-05-08T05:36:30.496Z,1016.6
2017-05-08T05:36:56.110Z,1016.62
2017-05-08T05:37:21.674Z,1016.62
2017-05-08T05:37:47.232Z,1016.61
2017-05-08T05:38:12.829Z,1016.58
2017-05-08T05:38:38.404Z,1016.59
2017-05-08T05:39:03.958Z,1016.64
2017-05-08T05:39:29.603Z,1016.61
2017-05-08T05:39:55.288Z,1016.58
2017-05-08T05:40:20.840Z,1016.64
2017-05-08T05:40:46.453Z,1016.66
2017-05-08T05:41:12.016Z,1016.66
2017-05-08T05:41:37.601Z,1016.63
2017-05-08T05:42:03.164Z,1016.69
2017-05-08T05:42:28.711Z,1016.69
2017-05-08T05:42:54.285Z,1016.65
2017-05-08T05:43:19.847Z,1016.68
2017-05-08T05:43:45.460Z,1016.7
2017-05-08T05:44:11.122Z,1016.71
2017-05-08T05:44:36.727Z,1016.69
2017-05-08T05:45:02.278Z,1016.7
2017-05-08T05:45:27.827Z,1016.7
2017-05-08T05:45:53.403Z,1016.74
2017-05-08T05:46:18.969Z,1016.71
2017-05-08T05:46:44.530Z,1016.65
2017-05-08T05:47:10.090Z,1016.68
2017-05-08T05:47:35.665Z,1016.64
2017-05-08T05:48:01.243Z,1016.62
2017-05-08T05:48:26.802Z,1016.65
2017-05-08T05:48:52.457Z,1016.67
2017-05-08T05:49:18.029Z,1016.67
2017-05-08T05:49:43.601Z,1016.7
2017-05-08T05:50:09.241Z,1016.7
2017-05-08T05:50:34.834Z,1016.67
2017-05-08T05:51:00.439Z,1016.69
2017-05-08T05:51:26.010Z,1016.7
2017-05-08T05:51:51.584Z,1016.71
2017-05-08T05:52:17.148Z,1016.71
2017-05-08T05:52:42.703Z,1016.7
2017-05-08T05:53:08.266Z,1016.71
2017-05-08T05:53:33.843Z,1016.7
2017-05-08T05:53:59.403Z,1016.73
2017-05-08T05:54:24.962Z,1016.74
2017-05-08T05:54:50.615Z,1016.75
2017-05-08T05:55:16.240Z,1016.74
2017-05-08T05:55:41.815Z,1016.77
2017-05-08T05:56:07.373Z,1016.78
2017-05-08T05:56:33.049Z,1016.8
2017-05-08T05:56:58.623Z,1016.79
2017-05-08T05:57:24.193Z,1016.75
2017-05-08T05:57:49.750Z,1016.76
2017-05-08T05:58:15.314Z,1016.76
2017-05-08T05:58:40.875Z,1016.78
2017-05-08T05:59:06.451Z,1016.83
2017-05-08T05:59:32.011Z,1016.82
2017-05-08T05:59:57.570Z,1016.79
2017-05-08T06:00:23.180Z,1016.83
2017-05-08T06:00:48.713Z,1016.76
2017-05-08T06:01:47.154Z,1016.82
2017-05-08T06:02:12.721Z,1016.78
2017-05-08T06:02:38.270Z,1016.82
2017-05-08T06:03:03.941Z,1016.82
2017-05-08T06:03:29.504Z,1016.83
2017-05-08T06:03:55.085Z,1016.8
2017-05-08T06:04:20.680Z,1016.84
2017-05-08T06:04:46.341Z,1016.84
2017-05-08T06:05:11.980Z,1016.83
2017-05-08T06:05:37.549Z,1016.82
2017-05-08T06:06:03.123Z,1016.83
2017-05-08T06:06:28.669Z,1016.86
2017-05-08T06:06:54.283Z,1016.86
2017-05-08T06:07:19.853Z,1016.83
2017-05-08T06:07:45.505Z,1016.82
2017-05-08T06:08:11.070Z,1016.85
2017-05-08T06:08:36.693Z,1016.83
2017-05-08T06:09:02.348Z,1016.84
2017-05-08T06:09:27.912Z,1016.83
2017-05-08T06:09:53.522Z,1016.79
2017-05-08T06:10:19.143Z,1016.8
2017-05-08T06:10:44.709Z,1016.8
2017-05-08T06:11:10.372Z,1016.82
2017-05-08T06:11:35.926Z,1016.82
2017-05-08T06:12:01.528Z,1016.83
2017-05-08T06:12:27.091Z,1016.82
2017-05-08T06:12:52.663Z,1016.85
2017-05-08T06:13:18.311Z,1016.85
2017-05-08T06:13:43.874Z,1016.86
2017-05-08T06:14:09.548Z,1016.85
2017-05-08T06:14:35.124Z,1016.85
2017-05-08T06:15:00.673Z,1016.85
2017-05-08T06:15:26.324Z,1016.86
2017-05-08T06:15:51.890Z,1016.86
2017-05-08T06:16:17.551Z,1016.81
2017-05-08T06:16:43.126Z,1016.83
2017-05-08T06:17:08.730Z,1016.83
2017-05-08T06:17:34.373Z,1016.82
2017-05-08T06:17:59.948Z,1016.8
2017-05-08T06:18:25.569Z,1016.83
2017-05-08T06:18:51.131Z,1016.81
2017-05-08T06:19:16.703Z,1016.78
2017-05-08T06:19:42.280Z,1016.82
2017-05-08T06:20:07.849Z,1016.81
2017-05-08T06:20:33.459Z,1016.83
2017-05-08T06:20:59.020Z,1016.84
2017-05-08T06:21:24.621Z,1016.8
2017-05-08T06:21:50.447Z,1016.83
2017-05-08T06:22:16.164Z,1016.83
2017-05-08T06:22:41.731Z,1016.82
2017-05-08T06:23:07.346Z,1016.85
2017-05-08T06:23:32.961Z,1016.86
2017-05-08T06:23:58.550Z,1016.85
2017-05-08T06:24:24.108Z,1016.87
2017-05-08T06:24:49.751Z,1016.86
2017-05-08T06:25:15.330Z,1016.83
2017-05-08T06:25:40.867Z,1016.83
2017-05-08T06:26:06.448Z,1016.83
2017-05-08T06:26:32.012Z,1016.84
2017-05-08T06:26:57.672Z,1016.81
2017-05-08T06:27:23.212Z,1016.81
2017-05-08T06:27:48.803Z,1016.8
2017-05-08T06:28:14.392Z,1016.8
2017-05-08T06:28:39.974Z,1016.85
2017-05-08T06:29:05.598Z,1016.79
2017-05-08T06:29:31.203Z,1016.82
2017-05-08T06:29:56.910Z,1016.81
2017-05-08T06:30:22.521Z,1016.85
2017-05-08T06:30:48.080Z,1016.82
2017-05-08T06:31:13.740Z,1016.81
2017-05-08T06:31:39.353Z,1016.8
2017-05-08T06:32:05.002Z,1016.83
2017-05-08T06:32:30.717Z,1016.85
2017-05-08T06:32:56.272Z,1016.85
2017-05-08T06:33:21.936Z,1016.87
2017-05-08T06:33:47.679Z,1016.91
2017-05-08T06:34:13.240Z,1016.91
2017-05-08T06:34:38.841Z,1016.91
2017-05-08T06:35:04.426Z,1016.91
2017-05-08T06:36:07.941Z,1016.94
2017-05-08T06:36:33.525Z,1016.92
2017-05-08T06:36:59.082Z,1016.92
2017-05-08T06:37:24.652Z,1016.92
2017-05-08T06:37:50.235Z,1016.88
2017-05-08T06:38:15.903Z,1016.89
2017-05-08T06:38:41.541Z,1016.84
2017-05-08T06:39:07.091Z,1016.8
2017-05-08T06:39:32.687Z,1016.85
2017-05-08T06:39:58.255Z,1016.84
2017-05-08T06:41:12.107Z,1016.81
2017-05-08T06:41:38.560Z,1016.85
2017-05-08T06:42:04.150Z,1016.9
2017-05-08T06:42:29.767Z,1016.81
2017-05-08T06:42:55.330Z,1016.83
2017-05-08T06:43:20.984Z,1016.86
2017-05-08T06:43:46.642Z,1016.84
2017-05-08T06:44:12.208Z,1016.85
2017-05-08T06:44:37.844Z,1016.82
2017-05-08T06:45:03.402Z,1016.86
2017-05-08T06:45:29.043Z,1016.87
2017-05-08T06:45:54.644Z,1016.84
2017-05-08T06:46:20.319Z,1016.86
2017-05-08T06:46:45.917Z,1016.82
2017-05-08T06:47:11.543Z,1016.87
2017-05-08T06:47:37.150Z,1016.84
2017-05-08T06:48:02.822Z,1016.85
2017-05-08T06:48:28.402Z,1016.9
2017-05-08T06:48:54.062Z,1016.87
2017-05-08T06:49:19.678Z,1016.9
2017-05-08T06:49:45.245Z,1016.86
2017-05-08T06:50:10.813Z,1016.87
2017-05-08T06:50:36.375Z,1016.89
2017-05-08T06:51:01.962Z,1016.91
2017-05-08T06:51:27.513Z,1016.89
2017-05-08T06:51:53.107Z,1016.9
2017-05-08T06:52:18.754Z,1016.9
2017-05-08T06:52:44.392Z,1016.91
2017-05-08T06:53:09.991Z,1016.92
2017-05-08T06:53:35.572Z,1016.98
2017-05-08T06:54:01.243Z,1016.92
2017-05-08T06:54:27.041Z,1016.9
2017-05-08T06:54:52.600Z,1016.93
2017-05-08T06:55:18.254Z,1016.95
2017-05-08T06:55:43.963Z,1016.95
2017-05-08T06:56:09.517Z,1016.95
2017-05-08T06:57:23.281Z,1016.95
2017-05-08T06:57:49.005Z,1017
2017-05-08T06:58:14.574Z,1016.98
2017-05-08T06:58:40.171Z,1017.03
2017-05-08T06:59:05.799Z,1016.99
2017-05-08T06:59:31.303Z,1016.99
2017-05-08T06:59:56.874Z,1017
2017-05-08T07:00:22.433Z,1016.98
2017-05-08T07:00:48.023Z,1017
2017-05-08T07:01:13.591Z,1017
2017-05-08T07:01:39.250Z,1017.01
2017-05-08T07:02:04.853Z,1017
2017-05-08T07:02:30.525Z,1017.01
2017-05-08T07:02:56.134Z,1016.97
2017-05-08T07:03:21.855Z,1017.03
2017-05-08T07:03:47.454Z,1017.02
2017-05-08T07:04:13.076Z,1017.07
2017-05-08T07:04:38.634Z,1017.02
2017-05-08T07:05:04.292Z,1017.09
2017-05-08T07:05:29.981Z,1017.11
2017-05-08T07:05:55.630Z,1017.08
2017-05-08T07:06:21.188Z,1017.07
2017-05-08T07:06:46.911Z,1017.11
2017-05-08T07:07:12.457Z,1017.1
2017-05-08T07:07:38.261Z,1017.1
2017-05-08T07:08:03.822Z,1017.1
2017-05-08T07:08:30.012Z,1017.13
2017-05-08T07:08:55.569Z,1017.1
2017-05-08T07:09:21.155Z,1017.11
2017-05-08T07:09:46.791Z,1017.12
2017-05-08T07:10:12.392Z,1017.12
2017-05-08T07:10:38.494Z,1017.08
2017-05-08T07:11:04.081Z,1017.13
2017-05-08T07:11:29.630Z,1017.1
2017-05-08T07:11:55.215Z,1017.12
2017-05-08T07:12:20.771Z,1017.14
2017-05-08T07:12:46.373Z,1017.19
2017-05-08T07:13:49.883Z,1017.15
2017-05-08T07:14:15.519Z,1017.14
2017-05-08T07:14:41.092Z,1017.16
2017-05-08T07:15:06.650Z,1017.16
2017-05-08T07:15:32.294Z,1017.14
2017-05-08T07:16:35.731Z,1017.13
2017-05-08T07:17:01.353Z,1017.16
2017-05-08T07:17:26.911Z,1017.16
2017-05-08T07:17:52.555Z,1017.19
2017-05-08T07:18:18.135Z,1017.21
2017-05-08T07:18:43.775Z,1017.2
2017-05-08T07:19:09.361Z,1017.18
2017-05-08T07:19:34.929Z,1017.2
2017-05-08T07:20:00.542Z,1017.2
2017-05-08T07:20:26.204Z,1017.19
2017-05-08T07:20:51.745Z,1017.22
2017-05-08T07:21:17.345Z,1017.15
2017-05-08T07:21:42.905Z,1017.17
2017-05-08T07:22:08.494Z,1017.15
2017-05-08T07:22:34.226Z,1017.16
2017-05-08T07:22:59.805Z,1017.17
2017-05-08T07:23:25.487Z,1017.16
2017-05-08T07:23:51.051Z,1017.14
2017-05-08T07:24:16.708Z,1017.16
2017-05-08T07:24:42.382Z,1017.11
2017-05-08T07:25:07.933Z,1017.12
2017-05-08T07:25:33.515Z,1017.18
2017-05-08T07:25:59.081Z,1017.21
2017-05-08T07:26:24.752Z,1017.13
2017-05-08T07:26:50.396Z,1017.15
2017-05-08T07:27:15.953Z,1017.14
2017-05-08T07:27:41.583Z,1017.16
2017-05-08T07:28:07.238Z,1017.16
2017-05-08T07:28:32.793Z,1017.16
2017-05-08T07:28:58.423Z,1017.2
2017-05-08T07:29:24.010Z,1017.15
2017-05-08T07:29:49.691Z,1017.21
2017-05-08T07:30:15.280Z,1017.18
2017-05-08T07:30:40.886Z,1017.18
2017-05-08T07:31:06.521Z,1017.2
2017-05-08T07:31:32.092Z,1017.21
2017-05-08T07:31:57.674Z,1017.21
2017-05-08T07:32:23.300Z,1017.22
2017-05-08T07:32:48.898Z,1017.23
2017-05-08T07:33:14.525Z,1017.23
2017-05-08T07:33:40.108Z,1017.25
2017-05-08T07:34:05.754Z,1017.23
2017-05-08T07:34:31.348Z,1017.28
2017-05-08T07:34:57.028Z,1017.28
2017-05-08T07:35:22.830Z,1017.29
2017-05-08T07:35:48.437Z,1017.28
2017-05-08T07:36:14.007Z,1017.29
2017-05-08T07:36:39.675Z,1017.25
2017-05-08T07:37:05.240Z,1017.26
2017-05-08T07:37:30.934Z,1017.3
2017-05-08T07:37:56.577Z,1017.31
2017-05-08T07:38:22.151Z,1017.28
2017-05-08T07:38:47.932Z,1017.3
2017-05-08T07:39:13.649Z,1017.3
2017-05-08T07:39:39.330Z,1017.29
2017-05-08T07:40:04.931Z,1017.29
2017-05-08T07:40:30.498Z,1017.33
2017-05-08T07:40:56.061Z,1017.27
2017-05-08T07:41:21.642Z,1017.33
2017-05-08T07:41:47.208Z,1017.31
2017-05-08T07:42:12.784Z,1017.31
2017-05-08T07:42:38.353Z,1017.31
2017-05-08T07:43:03.990Z,1017.28
2017-05-08T07:43:29.548Z,1017.29
2017-05-08T07:43:55.132Z,1017.33
2017-05-08T07:44:21.281Z,1017.34
2017-05-08T07:44:46.857Z,1017.34
2017-05-08T07:45:12.396Z,1017.33
2017-05-08T07:45:37.996Z,1017.33
2017-05-08T07:46:03.691Z,1017.35
2017-05-08T07:46:29.243Z,1017.34
2017-05-08T07:46:54.904Z,1017.36
2017-05-08T07:47:20.544Z,1017.33
2017-05-08T07:47:46.067Z,1017.34
2017-05-08T07:48:11.625Z,1017.39
2017-05-08T07:48:37.267Z,1017.33
2017-05-08T07:49:02.896Z,1017.35
2017-05-08T07:49:28.444Z,1017.31
2017-05-08T07:49:54.045Z,1017.33
2017-05-08T07:50:19.669Z,1017.39
2017-05-08T07:50:45.253Z,1017.31
2017-05-08T07:51:10.933Z,1017.33
2017-05-08T07:51:36.498Z,1017.31
2017-05-08T07:52:02.093Z,1017.37
2017-05-08T07:52:27.668Z,1017.39
2017-05-08T07:52:53.269Z,1017.38
2017-05-08T07:53:18.885Z,1017.37
2017-05-08T07:53:44.462Z,1017.33
2017-05-08T07:54:10.064Z,1017.34
2017-05-08T07:54:35.729Z,1017.33
2017-05-08T07:55:01.282Z,1017.33
2017-05-08T07:55:26.885Z,1017.3
2017-05-08T07:55:52.448Z,1017.32
2017-05-08T07:56:18.031Z,1017.35
2017-05-08T07:56:43.681Z,1017.32
2017-05-08T07:57:09.293Z,1017.33
2017-05-08T07:57:34.854Z,1017.35
2017-05-08T07:58:00.506Z,1017.34
2017-05-08T07:58:26.109Z,1017.33
2017-05-08T07:58:51.733Z,1017.32
2017-05-08T07:59:17.321Z,1017.33
2017-05-08T07:59:42.933Z,1017.35
2017-05-08T08:00:08.499Z,1017.3
2017-05-08T08:00:34.140Z,1017.36
2017-05-08T08:00:59.725Z,1017.32
2017-05-08T08:01:25.350Z,1017.33
2017-05-08T08:01:50.929Z,1017.36
2017-05-08T08:02:16.479Z,1017.33
2017-05-08T08:02:42.097Z,1017.34
2017-05-08T08:03:07.672Z,1017.37
2017-05-08T08:03:33.305Z,1017.35
2017-05-08T08:03:58.879Z,1017.35
2017-05-08T08:04:24.441Z,1017.34
2017-05-08T08:04:50.063Z,1017.37
2017-05-08T08:05:15.612Z,1017.32
2017-05-08T08:05:41.342Z,1017.33
2017-05-08T08:06:06.901Z,1017.33
2017-05-08T08:06:32.475Z,1017.38
2017-05-08T08:06:58.130Z,1017.37
2017-05-08T08:07:23.673Z,1017.37
2017-05-08T08:07:49.234Z,1017.35
2017-05-08T08:08:14.904Z,1017.37
2017-05-08T08:08:40.460Z,1017.38
2017-05-08T08:09:06.068Z,1017.38
2017-05-08T08:09:31.631Z,1017.36
2017-05-08T08:09:57.363Z,1017.41
2017-05-08T08:10:22.933Z,1017.38
2017-05-08T08:10:48.491Z,1017.38
2017-05-08T08:11:14.102Z,1017.36
2017-05-08T08:11:39.704Z,1017.36
2017-05-08T08:12:05.329Z,1017.35
2017-05-08T08:12:30.963Z,1017.36
2017-05-08T08:12:56.557Z,1017.35
2017-05-08T08:13:22.135Z,1017.41
2017-05-08T08:13:47.702Z,1017.34
2017-05-08T08:14:13.380Z,1017.41
2017-05-08T08:14:38.990Z,1017.37
2017-05-08T08:15:04.608Z,1017.38
2017-05-08T08:15:30.278Z,1017.42
2017-05-08T08:15:55.978Z,1017.38
2017-05-08T08:16:21.465Z,1017.44
2017-05-08T08:16:47.054Z,1017.41
2017-05-08T08:17:12.604Z,1017.41
2017-05-08T08:17:38.195Z,1017.39
2017-05-08T08:18:03.758Z,1017.43
2017-05-08T08:18:29.430Z,1017.44
2017-05-08T08:18:55.004Z,1017.39
2017-05-08T08:19:20.575Z,1017.41
2017-05-08T08:19:46.245Z,1017.43